Terminal Aerodrome Forecast
Issued by NWS Sioux Falls, SD

Home | Current Version | Previous Version | Text Only | Print | Product List | Glossary Off
Versions: 1 2 3 4 5 6 7 8 9 10 11 12 13 14 15 16 17 18 19

000
FTUS43 KFSD 161137
TAFHON
TAF
KHON 161137Z 1612/1712 34014G22KT P6SM SCT020
     FM161500 34012KT P6SM SCT020
      TEMPO 1616/1620 BKN022
     FM170000 33004KT P6SM SKC=

USA.gov is the U.S. government's official web portal to all federal, state and local government web resources and services.